sensor_id;sensor_type;location;lat;lon;timestamp;P1;durP1;ratioP1;P2;durP2;ratioP2
52268;SDS011;38224;50.950;4.100;2023-01-04T00:02:16;8.88;;;3.60;;
52268;SDS011;38224;50.950;4.100;2023-01-04T00:04:41;7.43;;;3.53;;
52268;SDS011;38224;50.950;4.100;2023-01-04T00:07:06;5.47;;;3.60;;
52268;SDS011;38224;50.950;4.100;2023-01-04T00:09:31;8.88;;;3.25;;
52268;SDS011;38224;50.950;4.100;2023-01-04T00:11:57;7.85;;;3.67;;
52268;SDS011;38224;50.950;4.100;2023-01-04T00:14:22;9.97;;;3.47;;
52268;SDS011;38224;50.950;4.100;2023-01-04T00:16:47;5.90;;;3.30;;
52268;SDS011;38224;50.950;4.100;2023-01-04T00:19:12;8.43;;;4.00;;
52268;SDS011;38224;50.950;4.100;2023-01-04T00:21:38;16.13;;;3.83;;
52268;SDS011;38224;50.950;4.100;2023-01-04T00:24:03;7.53;;;2.85;;
52268;SDS011;38224;50.950;4.100;2023-01-04T00:26:30;3.88;;;2.45;;
52268;SDS011;38224;50.950;4.100;2023-01-04T00:28:59;5.15;;;2.97;;
52268;SDS011;38224;50.950;4.100;2023-01-04T00:31:25;8.10;;;3.70;;
52268;SDS011;38224;50.950;4.100;2023-01-04T00:33:54;5.45;;;3.67;;
52268;SDS011;38224;50.950;4.100;2023-01-04T00:36:19;6.70;;;2.95;;
52268;SDS011;38224;50.950;4.100;2023-01-04T00:38:45;12.48;;;4.15;;
52268;SDS011;38224;50.950;4.100;2023-01-04T00:41:10;6.57;;;3.40;;
52268;SDS011;38224;50.950;4.100;2023-01-04T00:43:36;11.10;;;4.32;;
52268;SDS011;38224;50.950;4.100;2023-01-04T00:46:01;9.67;;;3.53;;
52268;SDS011;38224;50.950;4.100;2023-01-04T00:48:27;8.93;;;4.28;;
52268;SDS011;38224;50.950;4.100;2023-01-04T00:50:52;7.50;;;3.88;;
52268;SDS011;38224;50.950;4.100;2023-01-04T00:53:17;7.60;;;3.55;;
52268;SDS011;38224;50.950;4.100;2023-01-04T00:55:43;11.30;;;3.88;;
52268;SDS011;38224;50.950;4.100;2023-01-04T00:58:08;9.75;;;4.00;;
52268;SDS011;38224;50.950;4.100;2023-01-04T01:00:34;7.85;;;3.97;;
52268;SDS011;38224;50.950;4.100;2023-01-04T01:02:59;6.18;;;3.72;;
52268;SDS011;38224;50.950;4.100;2023-01-04T01:05:25;11.43;;;4.80;;
52268;SDS011;38224;50.950;4.100;2023-01-04T01:07:50;10.00;;;4.88;;
52268;SDS011;38224;50.950;4.100;2023-01-04T01:10:15;12.00;;;4.75;;
52268;SDS011;38224;50.950;4.100;2023-01-04T01:12:40;8.63;;;4.20;;
52268;SDS011;38224;50.950;4.100;2023-01-04T01:15:06;12.27;;;4.80;;
52268;SDS011;38224;50.950;4.100;2023-01-04T01:17:31;10.73;;;5.07;;
52268;SDS011;38224;50.950;4.100;2023-01-04T01:19:57;13.20;;;5.07;;
52268;SDS011;38224;50.950;4.100;2023-01-04T01:22:22;10.53;;;5.30;;
52268;SDS011;38224;50.950;4.100;2023-01-04T01:24:47;12.88;;;5.57;;
52268;SDS011;38224;50.950;4.100;2023-01-04T01:27:12;9.23;;;4.27;;
52268;SDS011;38224;50.950;4.100;2023-01-04T01:29:38;10.70;;;4.60;;
52268;SDS011;38224;50.950;4.100;2023-01-04T01:32:03;12.27;;;4.33;;
52268;SDS011;38224;50.950;4.100;2023-01-04T01:34:28;10.30;;;4.80;;
52268;SDS011;38224;50.950;4.100;2023-01-04T01:36:54;7.30;;;4.17;;
52268;SDS011;38224;50.950;4.100;2023-01-04T01:39:19;7.40;;;4.03;;
52268;SDS011;38224;50.950;4.100;2023-01-04T01:41:44;9.60;;;4.75;;
52268;SDS011;38224;50.950;4.100;2023-01-04T01:46:54;8.32;;;4.88;;
52268;SDS011;38224;50.950;4.100;2023-01-04T01:49:30;9.83;;;4.47;;
52268;SDS011;38224;50.950;4.100;2023-01-04T01:51:56;10.05;;;4.50;;
52268;SDS011;38224;50.950;4.100;2023-01-04T01:54:24;10.10;;;4.15;;
52268;SDS011;38224;50.950;4.100;2023-01-04T01:56:55;8.47;;;4.47;;
52268;SDS011;38224;50.950;4.100;2023-01-04T01:59:21;7.13;;;4.30;;
52268;SDS011;38224;50.950;4.100;2023-01-04T02:01:47;6.22;;;4.40;;
52268;SDS011;38224;50.950;4.100;2023-01-04T02:04:12;9.70;;;4.23;;
52268;SDS011;38224;50.950;4.100;2023-01-04T02:06:38;6.10;;;4.30;;
52268;SDS011;38224;50.950;4.100;2023-01-04T02:09:04;6.70;;;3.78;;
52268;SDS011;38224;50.950;4.100;2023-01-04T02:11:30;14.00;;;4.60;;
52268;SDS011;38224;50.950;4.100;2023-01-04T02:13:55;12.35;;;4.82;;
52268;SDS011;38224;50.950;4.100;2023-01-04T02:21:49;9.95;;;4.55;;
52268;SDS011;38224;50.950;4.100;2023-01-04T02:34:51;12.23;;;4.30;;
52268;SDS011;38224;50.950;4.100;2023-01-04T02:42:39;13.10;;;4.35;;
52268;SDS011;38224;50.950;4.100;2023-01-04T02:45:25;11.82;;;4.75;;
52268;SDS011;38224;50.950;4.100;2023-01-04T02:47:53;12.35;;;4.47;;
52268;SDS011;38224;50.950;4.100;2023-01-04T02:50:53;8.90;;;4.10;;
52268;SDS011;38224;50.950;4.100;2023-01-04T02:53:21;10.23;;;4.70;;
52268;SDS011;38224;50.950;4.100;2023-01-04T02:58:24;11.05;;;4.45;;
52268;SDS011;38224;50.950;4.100;2023-01-04T03:03:38;9.55;;;4.47;;
52268;SDS011;38224;50.950;4.100;2023-01-04T03:06:26;17.83;;;4.63;;
52268;SDS011;38224;50.950;4.100;2023-01-04T03:09:08;9.80;;;4.00;;
52268;SDS011;38224;50.950;4.100;2023-01-04T03:11:40;8.88;;;4.22;;
52268;SDS011;38224;50.950;4.100;2023-01-04T03:14:27;7.57;;;3.35;;
52268;SDS011;38224;50.950;4.100;2023-01-04T03:16:53;9.90;;;3.50;;
52268;SDS011;38224;50.950;4.100;2023-01-04T03:19:20;11.10;;;3.55;;
52268;SDS011;38224;50.950;4.100;2023-01-04T03:22:05;14.32;;;3.55;;
52268;SDS011;38224;50.950;4.100;2023-01-04T03:24:50;10.15;;;3.30;;
52268;SDS011;38224;50.950;4.100;2023-01-04T03:27:34;8.82;;;3.60;;
52268;SDS011;38224;50.950;4.100;2023-01-04T03:30:18;10.07;;;3.55;;
52268;SDS011;38224;50.950;4.100;2023-01-04T03:33:04;10.98;;;3.78;;
52268;SDS011;38224;50.950;4.100;2023-01-04T03:35:50;7.30;;;3.47;;
52268;SDS011;38224;50.950;4.100;2023-01-04T03:41:13;6.70;;;3.38;;
52268;SDS011;38224;50.950;4.100;2023-01-04T03:47:03;11.88;;;3.53;;
52268;SDS011;38224;50.950;4.100;2023-01-04T03:49:50;9.27;;;3.70;;
52268;SDS011;38224;50.950;4.100;2023-01-04T03:52:21;9.32;;;4.20;;
52268;SDS011;38224;50.950;4.100;2023-01-04T03:54:48;12.13;;;3.40;;
52268;SDS011;38224;50.950;4.100;2023-01-04T03:57:14;8.93;;;3.50;;
52268;SDS011;38224;50.950;4.100;2023-01-04T03:59:40;6.43;;;2.95;;
52268;SDS011;38224;50.950;4.100;2023-01-04T04:02:11;11.30;;;3.70;;
52268;SDS011;38224;50.950;4.100;2023-01-04T04:04:38;8.05;;;3.45;;
52268;SDS011;38224;50.950;4.100;2023-01-04T04:07:22;7.32;;;3.30;;
52268;SDS011;38224;50.950;4.100;2023-01-04T04:10:06;7.60;;;3.53;;
52268;SDS011;38224;50.950;4.100;2023-01-04T04:12:32;9.68;;;3.03;;
52268;SDS011;38224;50.950;4.100;2023-01-04T04:14:57;10.80;;;3.83;;
52268;SDS011;38224;50.950;4.100;2023-01-04T04:17:22;11.37;;;3.57;;
52268;SDS011;38224;50.950;4.100;2023-01-04T04:19:47;11.37;;;2.97;;
52268;SDS011;38224;50.950;4.100;2023-01-04T04:22:13;8.70;;;3.17;;
52268;SDS011;38224;50.950;4.100;2023-01-04T04:24:38;7.03;;;2.97;;
52268;SDS011;38224;50.950;4.100;2023-01-04T04:27:03;6.93;;;2.93;;
52268;SDS011;38224;50.950;4.100;2023-01-04T04:29:28;7.78;;;2.30;;
52268;SDS011;38224;50.950;4.100;2023-01-04T04:31:54;7.83;;;2.70;;
52268;SDS011;38224;50.950;4.100;2023-01-04T04:34:19;7.73;;;2.87;;
52268;SDS011;38224;50.950;4.100;2023-01-04T04:36:44;8.80;;;2.17;;
52268;SDS011;38224;50.950;4.100;2023-01-04T04:39:10;6.40;;;2.63;;
52268;SDS011;38224;50.950;4.100;2023-01-04T04:41:35;6.90;;;2.75;;
52268;SDS011;38224;50.950;4.100;2023-01-04T04:44:07;5.57;;;2.33;;
52268;SDS011;38224;50.950;4.100;2023-01-04T04:46:33;8.35;;;2.95;;
52268;SDS011;38224;50.950;4.100;2023-01-04T04:48:58;3.00;;;2.25;;
52268;SDS011;38224;50.950;4.100;2023-01-04T04:51:23;8.45;;;2.58;;
52268;SDS011;38224;50.950;4.100;2023-01-04T04:53:48;3.60;;;2.40;;
52268;SDS011;38224;50.950;4.100;2023-01-04T04:56:14;5.90;;;2.43;;
52268;SDS011;38224;50.950;4.100;2023-01-04T04:58:39;5.85;;;2.67;;
52268;SDS011;38224;50.950;4.100;2023-01-04T05:01:05;10.23;;;2.37;;
52268;SDS011;38224;50.950;4.100;2023-01-04T05:03:30;5.85;;;2.20;;
52268;SDS011;38224;50.950;4.100;2023-01-04T05:05:56;3.70;;;2.22;;
52268;SDS011;38224;50.950;4.100;2023-01-04T05:08:21;7.35;;;2.35;;
52268;SDS011;38224;50.950;4.100;2023-01-04T05:10:47;4.90;;;1.90;;
52268;SDS011;38224;50.950;4.100;2023-01-04T05:13:15;9.60;;;2.70;;
52268;SDS011;38224;50.950;4.100;2023-01-04T05:15:42;3.67;;;2.10;;
52268;SDS011;38224;50.950;4.100;2023-01-04T05:18:08;2.53;;;1.90;;
52268;SDS011;38224;50.950;4.100;2023-01-04T05:20:33;4.05;;;2.08;;
52268;SDS011;38224;50.950;4.100;2023-01-04T05:22:59;6.78;;;2.17;;
52268;SDS011;38224;50.950;4.100;2023-01-04T05:25:24;7.88;;;2.15;;
52268;SDS011;38224;50.950;4.100;2023-01-04T05:27:49;5.63;;;2.03;;
52268;SDS011;38224;50.950;4.100;2023-01-04T05:30:15;6.93;;;3.28;;
52268;SDS011;38224;50.950;4.100;2023-01-04T05:32:59;5.68;;;2.40;;
52268;SDS011;38224;50.950;4.100;2023-01-04T05:35:25;7.57;;;2.30;;
52268;SDS011;38224;50.950;4.100;2023-01-04T05:37:50;4.53;;;2.45;;
52268;SDS011;38224;50.950;4.100;2023-01-04T05:40:16;5.35;;;2.35;;
52268;SDS011;38224;50.950;4.100;2023-01-04T05:42:41;4.88;;;2.50;;
52268;SDS011;38224;50.950;4.100;2023-01-04T05:45:06;7.10;;;2.23;;
52268;SDS011;38224;50.950;4.100;2023-01-04T05:47:32;5.32;;;2.20;;
52268;SDS011;38224;50.950;4.100;2023-01-04T05:49:58;4.25;;;2.00;;
52268;SDS011;38224;50.950;4.100;2023-01-04T05:52:23;6.15;;;2.40;;
52268;SDS011;38224;50.950;4.100;2023-01-04T05:54:48;3.88;;;2.10;;
52268;SDS011;38224;50.950;4.100;2023-01-04T05:57:13;6.17;;;2.07;;
52268;SDS011;38224;50.950;4.100;2023-01-04T05:59:39;6.43;;;2.50;;
52268;SDS011;38224;50.950;4.100;2023-01-04T06:02:05;9.90;;;2.55;;
52268;SDS011;38224;50.950;4.100;2023-01-04T06:04:30;6.32;;;2.00;;
52268;SDS011;38224;50.950;4.100;2023-01-04T06:06:55;3.60;;;1.73;;
52268;SDS011;38224;50.950;4.100;2023-01-04T06:09:21;5.45;;;2.00;;
52268;SDS011;38224;50.950;4.100;2023-01-04T06:11:46;6.47;;;2.58;;
52268;SDS011;38224;50.950;4.100;2023-01-04T06:14:11;8.00;;;1.70;;
52268;SDS011;38224;50.950;4.100;2023-01-04T06:16:37;2.40;;;1.50;;
52268;SDS011;38224;50.950;4.100;2023-01-04T06:19:02;2.13;;;1.43;;
52268;SDS011;38224;50.950;4.100;2023-01-04T06:21:27;3.25;;;1.60;;
52268;SDS011;38224;50.950;4.100;2023-01-04T06:23:52;5.45;;;1.88;;
52268;SDS011;38224;50.950;4.100;2023-01-04T06:26:18;3.55;;;1.92;;
52268;SDS011;38224;50.950;4.100;2023-01-04T06:28:43;4.93;;;1.60;;
52268;SDS011;38224;50.950;4.100;2023-01-04T06:31:09;3.08;;;1.40;;
52268;SDS011;38224;50.950;4.100;2023-01-04T06:33:35;3.35;;;1.75;;
52268;SDS011;38224;50.950;4.100;2023-01-04T06:36:00;8.50;;;1.65;;
52268;SDS011;38224;50.950;4.100;2023-01-04T06:38:25;8.73;;;2.08;;
52268;SDS011;38224;50.950;4.100;2023-01-04T06:40:51;7.28;;;2.10;;
52268;SDS011;38224;50.950;4.100;2023-01-04T06:43:16;3.47;;;1.95;;
52268;SDS011;38224;50.950;4.100;2023-01-04T06:45:41;3.07;;;1.90;;
52268;SDS011;38224;50.950;4.100;2023-01-04T06:48:06;2.63;;;1.60;;
52268;SDS011;38224;50.950;4.100;2023-01-04T06:50:32;4.70;;;1.88;;
52268;SDS011;38224;50.950;4.100;2023-01-04T06:52:57;4.57;;;1.50;;
52268;SDS011;38224;50.950;4.100;2023-01-04T06:55:22;7.43;;;2.00;;
52268;SDS011;38224;50.950;4.100;2023-01-04T06:57:48;4.85;;;1.67;;
52268;SDS011;38224;50.950;4.100;2023-01-04T07:00:13;5.95;;;2.30;;
52268;SDS011;38224;50.950;4.100;2023-01-04T07:02:38;3.78;;;1.42;;
52268;SDS011;38224;50.950;4.100;2023-01-04T07:05:04;6.37;;;1.90;;
52268;SDS011;38224;50.950;4.100;2023-01-04T07:07:30;8.63;;;2.05;;
52268;SDS011;38224;50.950;4.100;2023-01-04T07:09:55;4.55;;;1.88;;
52268;SDS011;38224;50.950;4.100;2023-01-04T07:12:21;5.20;;;1.43;;
52268;SDS011;38224;50.950;4.100;2023-01-04T07:14:46;5.03;;;1.57;;
52268;SDS011;38224;50.950;4.100;2023-01-04T07:17:11;5.10;;;1.50;;
52268;SDS011;38224;50.950;4.100;2023-01-04T07:19:36;5.00;;;1.65;;
52268;SDS011;38224;50.950;4.100;2023-01-04T07:22:02;6.87;;;2.07;;
52268;SDS011;38224;50.950;4.100;2023-01-04T07:24:27;6.40;;;2.07;;
52268;SDS011;38224;50.950;4.100;2023-01-04T07:26:52;4.70;;;1.80;;
52268;SDS011;38224;50.950;4.100;2023-01-04T07:29:17;5.38;;;1.52;;
52268;SDS011;38224;50.950;4.100;2023-01-04T07:31:44;7.47;;;1.75;;
52268;SDS011;38224;50.950;4.100;2023-01-04T07:34:10;6.80;;;1.63;;
52268;SDS011;38224;50.950;4.100;2023-01-04T07:36:35;7.82;;;1.90;;
52268;SDS011;38224;50.950;4.100;2023-01-04T07:39:00;5.53;;;1.80;;
52268;SDS011;38224;50.950;4.100;2023-01-04T07:41:26;8.77;;;1.73;;
52268;SDS011;38224;50.950;4.100;2023-01-04T07:43:51;10.02;;;2.40;;
52268;SDS011;38224;50.950;4.100;2023-01-04T07:46:16;5.77;;;1.60;;
52268;SDS011;38224;50.950;4.100;2023-01-04T07:48:42;5.43;;;1.52;;
52268;SDS011;38224;50.950;4.100;2023-01-04T07:51:07;5.73;;;1.70;;
52268;SDS011;38224;50.950;4.100;2023-01-04T07:53:32;7.85;;;1.95;;
52268;SDS011;38224;50.950;4.100;2023-01-04T07:55:58;6.20;;;1.52;;
52268;SDS011;38224;50.950;4.100;2023-01-04T07:58:24;6.35;;;2.00;;
52268;SDS011;38224;50.950;4.100;2023-01-04T08:00:49;7.15;;;1.70;;
52268;SDS011;38224;50.950;4.100;2023-01-04T08:03:15;5.25;;;1.80;;
52268;SDS011;38224;50.950;4.100;2023-01-04T08:05:40;8.68;;;2.22;;
52268;SDS011;38224;50.950;4.100;2023-01-04T08:08:06;5.30;;;1.85;;
52268;SDS011;38224;50.950;4.100;2023-01-04T08:10:31;5.50;;;2.28;;
52268;SDS011;38224;50.950;4.100;2023-01-04T08:12:57;4.53;;;1.63;;
52268;SDS011;38224;50.950;4.100;2023-01-04T08:15:23;7.30;;;2.00;;
52268;SDS011;38224;50.950;4.100;2023-01-04T08:17:48;9.27;;;1.88;;
52268;SDS011;38224;50.950;4.100;2023-01-04T08:20:13;4.15;;;2.25;;
52268;SDS011;38224;50.950;4.100;2023-01-04T08:22:38;4.68;;;2.20;;
52268;SDS011;38224;50.950;4.100;2023-01-04T08:25:04;3.05;;;1.83;;
52268;SDS011;38224;50.950;4.100;2023-01-04T08:27:30;4.07;;;1.50;;
52268;SDS011;38224;50.950;4.100;2023-01-04T08:29:55;6.18;;;1.58;;
52268;SDS011;38224;50.950;4.100;2023-01-04T08:32:20;4.47;;;2.00;;
52268;SDS011;38224;50.950;4.100;2023-01-04T08:34:46;3.50;;;2.03;;
52268;SDS011;38224;50.950;4.100;2023-01-04T08:37:11;4.43;;;1.73;;
52268;SDS011;38224;50.950;4.100;2023-01-04T08:39:36;6.93;;;2.45;;
52268;SDS011;38224;50.950;4.100;2023-01-04T08:42:02;3.65;;;2.40;;
52268;SDS011;38224;50.950;4.100;2023-01-04T08:44:27;5.45;;;2.65;;
52268;SDS011;38224;50.950;4.100;2023-01-04T08:46:53;7.07;;;3.08;;
52268;SDS011;38224;50.950;4.100;2023-01-04T08:49:18;8.20;;;2.70;;
52268;SDS011;38224;50.950;4.100;2023-01-04T08:51:44;4.35;;;2.35;;
52268;SDS011;38224;50.950;4.100;2023-01-04T08:54:10;5.40;;;2.60;;
52268;SDS011;38224;50.950;4.100;2023-01-04T08:56:35;4.55;;;2.00;;
52268;SDS011;38224;50.950;4.100;2023-01-04T08:59:01;7.97;;;2.30;;
52268;SDS011;38224;50.950;4.100;2023-01-04T09:01:26;4.47;;;2.40;;
52268;SDS011;38224;50.950;4.100;2023-01-04T09:03:51;8.80;;;2.60;;
52268;SDS011;38224;50.950;4.100;2023-01-04T09:06:19;5.70;;;2.17;;
52268;SDS011;38224;50.950;4.100;2023-01-04T09:08:45;5.43;;;2.05;;
52268;SDS011;38224;50.950;4.100;2023-01-04T09:11:11;5.97;;;2.08;;
52268;SDS011;38224;50.950;4.100;2023-01-04T09:13:37;8.73;;;2.33;;
52268;SDS011;38224;50.950;4.100;2023-01-04T09:16:04;10.25;;;2.35;;
52268;SDS011;38224;50.950;4.100;2023-01-04T09:18:30;7.38;;;2.13;;
52268;SDS011;38224;50.950;4.100;2023-01-04T09:20:55;4.47;;;1.73;;
52268;SDS011;38224;50.950;4.100;2023-01-04T09:23:21;5.10;;;2.03;;
52268;SDS011;38224;50.950;4.100;2023-01-04T09:25:46;9.73;;;2.40;;
52268;SDS011;38224;50.950;4.100;2023-01-04T09:28:11;6.43;;;2.13;;
52268;SDS011;38224;50.950;4.100;2023-01-04T09:30:36;6.13;;;2.10;;
52268;SDS011;38224;50.950;4.100;2023-01-04T09:33:02;11.73;;;1.90;;
52268;SDS011;38224;50.950;4.100;2023-01-04T09:35:27;6.03;;;1.92;;
52268;SDS011;38224;50.950;4.100;2023-01-04T09:37:53;9.57;;;1.75;;
52268;SDS011;38224;50.950;4.100;2023-01-04T09:40:20;6.30;;;2.00;;
52268;SDS011;38224;50.950;4.100;2023-01-04T09:42:46;5.68;;;2.10;;
52268;SDS011;38224;50.950;4.100;2023-01-04T09:47:49;7.30;;;2.00;;
52268;SDS011;38224;50.950;4.100;2023-01-04T09:50:17;4.50;;;1.83;;
52268;SDS011;38224;50.950;4.100;2023-01-04T09:53:00;5.20;;;1.50;;
52268;SDS011;38224;50.950;4.100;2023-01-04T09:55:29;5.10;;;1.75;;
52268;SDS011;38224;50.950;4.100;2023-01-04T09:58:00;8.30;;;2.00;;
52268;SDS011;38224;50.950;4.100;2023-01-04T10:00:27;4.97;;;1.80;;
52268;SDS011;38224;50.950;4.100;2023-01-04T10:05:23;4.27;;;1.70;;
52268;SDS011;38224;50.950;4.100;2023-01-04T10:07:49;5.38;;;1.58;;
52268;SDS011;38224;50.950;4.100;2023-01-04T10:10:15;7.93;;;1.85;;
52268;SDS011;38224;50.950;4.100;2023-01-04T10:25:14;5.60;;;2.13;;
52268;SDS011;38224;50.950;4.100;2023-01-04T10:33:00;5.25;;;2.75;;
52268;SDS011;38224;50.950;4.100;2023-01-04T10:35:28;4.22;;;2.38;;
52268;SDS011;38224;50.950;4.100;2023-01-04T10:37:58;7.10;;;3.13;;
52268;SDS011;38224;50.950;4.100;2023-01-04T10:40:24;6.20;;;2.90;;
52268;SDS011;38224;50.950;4.100;2023-01-04T10:45:42;7.47;;;2.50;;
52268;SDS011;38224;50.950;4.100;2023-01-04T10:48:28;7.45;;;2.42;;
52268;SDS011;38224;50.950;4.100;2023-01-04T10:50:57;7.88;;;2.10;;
52268;SDS011;38224;50.950;4.100;2023-01-04T10:55:52;7.72;;;2.83;;
52268;SDS011;38224;50.950;4.100;2023-01-04T10:58:28;8.60;;;2.67;;
52268;SDS011;38224;50.950;4.100;2023-01-04T11:01:39;8.60;;;2.75;;
52268;SDS011;38224;50.950;4.100;2023-01-04T11:03:56;5.38;;;2.20;;
52268;SDS011;38224;50.950;4.100;2023-01-04T11:06:26;7.85;;;2.67;;
52268;SDS011;38224;50.950;4.100;2023-01-04T11:08:57;6.40;;;2.10;;
52268;SDS011;38224;50.950;4.100;2023-01-04T11:11:24;5.93;;;2.55;;
52268;SDS011;38224;50.950;4.100;2023-01-04T11:13:51;6.80;;;3.60;;
52268;SDS011;38224;50.950;4.100;2023-01-04T11:16:17;13.48;;;2.40;;
52268;SDS011;38224;50.950;4.100;2023-01-04T11:18:42;3.35;;;2.15;;
52268;SDS011;38224;50.950;4.100;2023-01-04T11:21:08;4.85;;;2.08;;
52268;SDS011;38224;50.950;4.100;2023-01-04T11:23:36;6.50;;;2.20;;
52268;SDS011;38224;50.950;4.100;2023-01-04T11:26:08;3.60;;;2.10;;
52268;SDS011;38224;50.950;4.100;2023-01-04T11:34:09;5.68;;;2.28;;
52268;SDS011;38224;50.950;4.100;2023-01-04T11:36:38;5.13;;;2.40;;
52268;SDS011;38224;50.950;4.100;2023-01-04T11:39:09;4.05;;;2.50;;
52268;SDS011;38224;50.950;4.100;2023-01-04T11:41:52;3.08;;;2.00;;
52268;SDS011;38224;50.950;4.100;2023-01-04T11:44:17;4.90;;;2.08;;
52268;SDS011;38224;50.950;4.100;2023-01-04T11:46:43;5.82;;;2.55;;
52268;SDS011;38224;50.950;4.100;2023-01-04T11:49:17;5.90;;;2.10;;
52268;SDS011;38224;50.950;4.100;2023-01-04T11:51:43;3.45;;;1.70;;
52268;SDS011;38224;50.950;4.100;2023-01-04T11:56:55;5.78;;;2.70;;
52268;SDS011;38224;50.950;4.100;2023-01-04T11:59:21;3.35;;;2.40;;
52268;SDS011;38224;50.950;4.100;2023-01-04T12:01:47;4.60;;;2.00;;
52268;SDS011;38224;50.950;4.100;2023-01-04T12:04:15;2.33;;;1.88;;
52268;SDS011;38224;50.950;4.100;2023-01-04T12:06:44;3.95;;;2.10;;
52268;SDS011;38224;50.950;4.100;2023-01-04T12:09:11;3.00;;;1.88;;
52268;SDS011;38224;50.950;4.100;2023-01-04T12:11:39;3.13;;;2.15;;
52268;SDS011;38224;50.950;4.100;2023-01-04T12:14:10;5.65;;;2.58;;
52268;SDS011;38224;50.950;4.100;2023-01-04T12:19:03;4.77;;;2.50;;
52268;SDS011;38224;50.950;4.100;2023-01-04T12:21:30;3.38;;;2.38;;
52268;SDS011;38224;50.950;4.100;2023-01-04T12:24:00;3.10;;;2.30;;
52268;SDS011;38224;50.950;4.100;2023-01-04T12:26:26;2.50;;;2.05;;
52268;SDS011;38224;50.950;4.100;2023-01-04T12:29:31;3.58;;;2.22;;
52268;SDS011;38224;50.950;4.100;2023-01-04T12:31:36;3.50;;;2.38;;
52268;SDS011;38224;50.950;4.100;2023-01-04T12:49:51;3.20;;;2.17;;
52268;SDS011;38224;50.950;4.100;2023-01-04T12:54:52;3.50;;;2.20;;
52268;SDS011;38224;50.950;4.100;2023-01-04T12:57:37;3.20;;;2.42;;
52268;SDS011;38224;50.950;4.100;2023-01-04T13:00:06;5.53;;;2.83;;
52268;SDS011;38224;50.950;4.100;2023-01-04T13:02:36;6.05;;;2.03;;
52268;SDS011;38224;50.950;4.100;2023-01-04T13:05:28;2.72;;;1.80;;
52268;SDS011;38224;50.950;4.100;2023-01-04T13:07:55;4.53;;;2.28;;
52268;SDS011;38224;50.950;4.100;2023-01-04T13:18:39;6.50;;;1.73;;
52268;SDS011;38224;50.950;4.100;2023-01-04T13:21:26;4.80;;;2.00;;
52268;SDS011;38224;50.950;4.100;2023-01-04T13:23:59;4.85;;;2.00;;
52268;SDS011;38224;50.950;4.100;2023-01-04T13:26:40;3.90;;;2.08;;
52268;SDS011;38224;50.950;4.100;2023-01-04T13:32:02;3.53;;;1.85;;
52268;SDS011;38224;50.950;4.100;2023-01-04T13:34:42;4.78;;;1.80;;
52268;SDS011;38224;50.950;4.100;2023-01-04T13:39:38;6.82;;;2.35;;
52268;SDS011;38224;50.950;4.100;2023-01-04T13:42:04;5.65;;;2.42;;
52268;SDS011;38224;50.950;4.100;2023-01-04T13:46:56;8.50;;;2.73;;
52268;SDS011;38224;50.950;4.100;2023-01-04T13:49:21;7.88;;;2.22;;
52268;SDS011;38224;50.950;4.100;2023-01-04T13:51:47;6.13;;;2.90;;
52268;SDS011;38224;50.950;4.100;2023-01-04T13:54:17;9.15;;;2.20;;
52268;SDS011;38224;50.950;4.100;2023-01-04T13:56:43;9.07;;;2.72;;
52268;SDS011;38224;50.950;4.100;2023-01-04T13:59:08;10.30;;;2.80;;
52268;SDS011;38224;50.950;4.100;2023-01-04T14:01:35;10.50;;;6.78;;
52268;SDS011;38224;50.950;4.100;2023-01-04T14:04:05;19.88;;;9.57;;
52268;SDS011;38224;50.950;4.100;2023-01-04T14:06:43;15.43;;;7.60;;
52268;SDS011;38224;50.950;4.100;2023-01-04T14:11:50;8.13;;;3.10;;
52268;SDS011;38224;50.950;4.100;2023-01-04T14:14:24;7.70;;;2.60;;
52268;SDS011;38224;50.950;4.100;2023-01-04T14:17:03;11.15;;;3.05;;
52268;SDS011;38224;50.950;4.100;2023-01-04T14:24:53;65.30;;;39.20;;
52268;SDS011;38224;50.950;4.100;2023-01-04T14:32:39;8.05;;;2.30;;
52268;SDS011;38224;50.950;4.100;2023-01-04T14:35:05;8.20;;;2.20;;
52268;SDS011;38224;50.950;4.100;2023-01-04T14:37:35;9.38;;;2.65;;
52268;SDS011;38224;50.950;4.100;2023-01-04T14:40:00;4.68;;;1.85;;
52268;SDS011;38224;50.950;4.100;2023-01-04T14:42:26;5.78;;;2.00;;
52268;SDS011;38224;50.950;4.100;2023-01-04T14:44:51;6.38;;;1.80;;
52268;SDS011;38224;50.950;4.100;2023-01-04T14:47:17;4.90;;;1.73;;
52268;SDS011;38224;50.950;4.100;2023-01-04T14:49:42;6.60;;;1.80;;
52268;SDS011;38224;50.950;4.100;2023-01-04T14:52:08;5.70;;;2.00;;
52268;SDS011;38224;50.950;4.100;2023-01-04T14:54:34;3.33;;;1.40;;
52268;SDS011;38224;50.950;4.100;2023-01-04T14:57:03;4.18;;;1.58;;
52268;SDS011;38224;50.950;4.100;2023-01-04T14:59:28;5.20;;;1.90;;
52268;SDS011;38224;50.950;4.100;2023-01-04T15:01:54;5.00;;;1.60;;
52268;SDS011;38224;50.950;4.100;2023-01-04T15:04:20;8.85;;;1.90;;
52268;SDS011;38224;50.950;4.100;2023-01-04T15:06:49;9.57;;;2.42;;
52268;SDS011;38224;50.950;4.100;2023-01-04T15:09:15;10.70;;;2.58;;
52268;SDS011;38224;50.950;4.100;2023-01-04T15:11:40;8.55;;;1.70;;
52268;SDS011;38224;50.950;4.100;2023-01-04T15:14:06;9.95;;;2.60;;
52268;SDS011;38224;50.950;4.100;2023-01-04T15:16:31;8.87;;;2.73;;
52268;SDS011;38224;50.950;4.100;2023-01-04T15:18:56;9.63;;;3.17;;
52268;SDS011;38224;50.950;4.100;2023-01-04T15:21:21;13.07;;;2.90;;
52268;SDS011;38224;50.950;4.100;2023-01-04T15:23:47;13.20;;;3.20;;
52268;SDS011;38224;50.950;4.100;2023-01-04T15:26:12;21.58;;;4.07;;
52268;SDS011;38224;50.950;4.100;2023-01-04T15:28:37;26.45;;;4.47;;
52268;SDS011;38224;50.950;4.100;2023-01-04T15:31:12;21.33;;;3.95;;
52268;SDS011;38224;50.950;4.100;2023-01-04T15:33:38;32.72;;;5.82;;
52268;SDS011;38224;50.950;4.100;2023-01-04T15:36:05;35.17;;;5.28;;
52268;SDS011;38224;50.950;4.100;2023-01-04T15:38:30;29.67;;;5.18;;
52268;SDS011;38224;50.950;4.100;2023-01-04T15:41:07;32.72;;;5.38;;
52268;SDS011;38224;50.950;4.100;2023-01-04T15:43:36;29.83;;;5.72;;
52268;SDS011;38224;50.950;4.100;2023-01-04T15:46:02;33.58;;;6.25;;
52268;SDS011;38224;50.950;4.100;2023-01-04T15:48:28;45.10;;;5.88;;
52268;SDS011;38224;50.950;4.100;2023-01-04T15:50:53;40.90;;;9.23;;
52268;SDS011;38224;50.950;4.100;2023-01-04T15:53:18;43.30;;;7.40;;
52268;SDS011;38224;50.950;4.100;2023-01-04T15:55:43;46.10;;;6.63;;
52268;SDS011;38224;50.950;4.100;2023-01-04T15:58:09;46.13;;;7.57;;
52268;SDS011;38224;50.950;4.100;2023-01-04T16:00:34;45.20;;;6.72;;
52268;SDS011;38224;50.950;4.100;2023-01-04T16:03:02;44.05;;;7.47;;
52268;SDS011;38224;50.950;4.100;2023-01-04T16:05:27;46.13;;;7.25;;
52268;SDS011;38224;50.950;4.100;2023-01-04T16:07:52;43.03;;;7.60;;
52268;SDS011;38224;50.950;4.100;2023-01-04T16:10:18;48.50;;;7.25;;
52268;SDS011;38224;50.950;4.100;2023-01-04T16:12:43;59.03;;;8.47;;
52268;SDS011;38224;50.950;4.100;2023-01-04T16:15:18;48.05;;;6.65;;
52268;SDS011;38224;50.950;4.100;2023-01-04T16:17:45;52.20;;;9.40;;
52268;SDS011;38224;50.950;4.100;2023-01-04T16:20:14;55.15;;;8.13;;
52268;SDS011;38224;50.950;4.100;2023-01-04T16:22:39;57.67;;;8.75;;
52268;SDS011;38224;50.950;4.100;2023-01-04T16:25:05;53.92;;;8.52;;
52268;SDS011;38224;50.950;4.100;2023-01-04T16:27:31;51.78;;;7.85;;
52268;SDS011;38224;50.950;4.100;2023-01-04T16:29:57;43.03;;;7.50;;
52268;SDS011;38224;50.950;4.100;2023-01-04T16:32:23;61.03;;;9.73;;
52268;SDS011;38224;50.950;4.100;2023-01-04T16:34:51;50.05;;;8.93;;
52268;SDS011;38224;50.950;4.100;2023-01-04T16:37:16;53.97;;;8.50;;
52268;SDS011;38224;50.950;4.100;2023-01-04T16:39:42;67.50;;;10.25;;
52268;SDS011;38224;50.950;4.100;2023-01-04T16:42:07;93.55;;;26.67;;
52268;SDS011;38224;50.950;4.100;2023-01-04T16:44:32;52.80;;;8.98;;
52268;SDS011;38224;50.950;4.100;2023-01-04T16:46:58;55.88;;;16.52;;
52268;SDS011;38224;50.950;4.100;2023-01-04T16:49:23;48.13;;;8.88;;